Time;durP1;ratioP1;P1;durP2;ratioP2;P2;SDS_P1;SDS_P2;PMS_P1;PMS_P2;Temp;Humidity;BMP_temperature;BMP_pressure;BME280_temperature;BME280_humidity;BME280_pressure;Samples;Min_cycle;Max_cycle;Signal;HPM_P1;HPM_P2
2021/07/13 00:09:14;;;;;;;3.10;2.90;;;;;;;22.51;65.51;100192.22;5011684;28;20071;-52
2021/07/13 00:11:40;;;;;;;2.83;2.63;;;;;;;22.50;65.51;100191.34;5010247;28;20472;-52
2021/07/13 00:14:08;;;;;;;2.85;2.65;;;;;;;22.51;65.69;100189.53;5011656;28;20445;-50
2021/07/13 00:16:33;;;;;;;2.60;2.45;;;;;;;22.50;65.55;100193.16;5011122;28;20025;-51
2021/07/13 00:18:59;;;;;;;2.90;2.70;;;;;;;22.50;65.70;100187.78;5010090;28;20088;-51
2021/07/13 00:21:24;;;;;;;3.08;2.88;;;;;;;22.50;65.46;100190.47;5018496;28;20034;-51
2021/07/13 00:23:50;;;;;;;2.72;2.53;;;;;;;22.49;65.45;100197.69;5015924;28;20042;-51
2021/07/13 00:26:15;;;;;;;3.05;2.85;;;;;;;22.48;65.53;100195.09;5016057;28;20038;-51
2021/07/13 00:28:41;;;;;;;2.97;2.78;;;;;;;22.48;65.75;100187.03;5013791;28;20037;-51
2021/07/13 00:31:06;;;;;;;2.90;2.70;;;;;;;22.46;65.42;100178.22;5022519;28;20032;-51
2021/07/13 00:33:32;;;;;;;3.28;2.97;;;;;;;22.46;65.45;100181.75;5014491;28;20026;-51
2021/07/13 00:35:57;;;;;;;3.10;2.90;;;;;;;22.46;65.51;100172.84;5014609;28;20033;-50
2021/07/13 00:38:29;;;;;;;3.20;2.83;;;;;;;22.45;65.40;100180.06;5021455;28;20022;-51
2021/07/13 00:40:54;;;;;;;3.05;2.85;;;;;;;22.45;65.62;100180.06;5011622;28;20025;-51
2021/07/13 00:43:19;;;;;;;2.83;2.63;;;;;;;22.43;65.59;100182.84;5013591;28;20105;-51
2021/07/13 00:45:45;;;;;;;3.08;2.88;;;;;;;22.43;65.33;100182.84;5012884;28;20030;-51
2021/07/13 00:48:14;;;;;;;3.38;3.17;;;;;;;22.43;65.42;100182.84;5016404;28;20032;-51
2021/07/13 00:50:43;;;;;;;3.28;3.08;;;;;;;22.41;65.48;100179.38;5012898;28;20443;-50
2021/07/13 00:53:09;;;;;;;2.95;2.75;;;;;;;22.41;65.45;100184.75;5010676;28;20017;-51
2021/07/13 00:55:34;;;;;;;3.35;3.10;;;;;;;22.40;65.62;100183.03;5012475;28;20038;-50
2021/07/13 00:58:03;;;;;;;3.10;2.90;;;;;;;22.41;65.53;100183.91;5018784;28;20476;-50
2021/07/13 01:00:32;;;;;;;3.00;2.80;;;;;;;22.39;65.55;100178.63;5012752;28;20022;-50
2021/07/13 01:03:01;;;;;;;3.65;3.35;;;;;;;22.39;65.54;100173.25;4995385;28;20529;-50
2021/07/13 01:05:33;;;;;;;2.90;2.70;;;;;;;22.39;65.32;100169.72;5012423;28;20041;-51
2021/07/13 01:08:04;;;;;;;3.10;2.90;;;;;;;22.38;65.49;100174.22;5018664;28;20479;-50
2021/07/13 01:10:49;;;;;;;2.85;2.65;;;;;;;22.38;65.29;100168.00;5010289;28;20087;-51
2021/07/13 01:13:29;;;;;;;4.13;3.88;;;;;;;22.37;65.32;100172.50;5016339;28;20703;-51
2021/07/13 01:16:00;;;;;;;3.80;3.50;;;;;;;22.36;65.54;100168.09;5009797;28;20017;-51
2021/07/13 01:18:28;;;;;;;3.35;3.15;;;;;;;22.36;65.38;100164.53;5011328;28;20300;-50
2021/07/13 01:21:24;;;;;;;3.80;3.30;;;;;;;22.34;65.38;100167.31;5003792;28;20104;-51
2021/07/13 01:24:13;;;;;;;3.35;3.13;;;;;;;22.34;65.54;100163.78;5009927;28;20076;-50
2021/07/13 01:26:58;;;;;;;2.95;2.75;;;;;;;22.34;65.35;100163.78;5016568;28;20030;-52
2021/07/13 01:29:24;;;;;;;4.10;3.20;;;;;;;22.32;65.37;100163.91;5008430;28;20432;-50
2021/07/13 01:31:50;;;;;;;3.33;3.13;;;;;;;22.32;65.41;100169.25;5017381;28;20402;-51
2021/07/13 01:34:21;;;;;;;3.25;3.03;;;;;;;22.30;65.36;100157.75;5012643;28;20041;-51
2021/07/13 01:36:56;;;;;;;3.55;3.25;;;;;;;22.31;65.32;100151.44;5012855;28;20032;-50
2021/07/13 01:39:29;;;;;;;3.53;3.17;;;;;;;22.29;65.45;100148.84;5010722;28;20543;-50
2021/07/13 01:41:58;;;;;;;3.35;3.13;;;;;;;22.30;65.38;100145.19;5017395;28;20022;-51
2021/07/13 01:44:23;;;;;;;3.50;3.30;;;;;;;22.29;65.32;100143.47;5012302;28;20108;-50
2021/07/13 01:46:50;;;;;;;3.85;3.13;;;;;;;22.27;65.45;100141.84;5011746;28;20032;-51
2021/07/13 01:49:19;;;;;;;3.50;3.03;;;;;;;22.26;65.40;100132.94;5013923;28;20042;-51
2021/07/13 01:51:48;;;;;;;3.90;3.60;;;;;;;22.25;65.44;100125.84;5026215;28;20026;-50
2021/07/13 01:54:16;;;;;;;3.00;2.80;;;;;;;22.26;65.48;100126.69;5012686;28;20018;-51
2021/07/13 01:56:54;;;;;;;3.63;3.33;;;;;;;22.25;65.33;100124.97;5011458;28;20471;-50
2021/07/13 01:59:20;;;;;;;3.63;3.33;;;;;;;22.24;65.38;100123.25;5008772;28;20499;-51
2021/07/13 02:01:46;;;;;;;3.63;3.33;;;;;;;22.23;65.23;100121.53;5008693;28;20036;-50
2021/07/13 02:04:13;;;;;;;3.45;2.88;;;;;;;22.22;65.51;100119.81;5014182;28;20053;-51
2021/07/13 02:06:41;;;;;;;3.72;3.42;;;;;;;22.22;65.31;100119.81;5009830;28;20024;-50
2021/07/13 02:09:09;;;;;;;3.85;3.55;;;;;;;22.20;65.36;100102.94;5011231;28;20049;-51
2021/07/13 02:11:35;;;;;;;4.13;3.80;;;;;;;22.22;65.23;100109.06;5006977;28;20036;-51
2021/07/13 02:14:00;;;;;;;3.67;3.20;;;;;;;22.21;65.35;100107.34;5012988;28;20033;-51
2021/07/13 02:16:25;;;;;;;3.90;3.60;;;;;;;22.18;65.26;100106.56;5007937;28;20531;-51
2021/07/13 02:18:51;;;;;;;3.97;3.42;;;;;;;22.17;65.18;100101.31;5011829;28;20046;-50
2021/07/13 02:21:17;;;;;;;3.75;3.45;;;;;;;22.18;65.19;100108.44;5007467;28;20040;-50
2021/07/13 02:23:43;;;;;;;3.72;3.42;;;;;;;22.16;65.32;100100.47;5015211;28;20030;-50
2021/07/13 02:26:11;;;;;;;3.83;3.53;;;;;;;22.16;65.41;100094.22;5012835;28;20088;-50
2021/07/13 02:28:39;;;;;;;3.80;3.50;;;;;;;22.14;65.13;100088.97;5017260;28;20029;-51
2021/07/13 02:31:14;;;;;;;3.78;3.47;;;;;;;22.14;65.26;100096.16;5032486;28;20044;-50
2021/07/13 02:33:55;;;;;;;3.67;3.45;;;;;;;22.12;65.27;100090.91;5017013;28;20029;-51
2021/07/13 02:36:26;;;;;;;3.58;3.38;;;;;;;22.13;65.37;100089.94;5017559;28;20032;-51
2021/07/13 02:38:53;;;;;;;3.90;3.60;;;;;;;22.11;65.38;100091.00;4995746;28;20112;-52
2021/07/13 02:41:18;;;;;;;4.40;3.67;;;;;;;22.10;65.38;100083.88;5005676;28;20036;-51
2021/07/13 02:43:44;;;;;;;4.45;3.88;;;;;;;22.09;65.25;100093.78;5015511;28;20017;-51
2021/07/13 02:46:11;;;;;;;4.22;3.92;;;;;;;22.09;65.25;100085.72;5030532;28;20788;-51
2021/07/13 02:48:37;;;;;;;3.70;3.38;;;;;;;22.08;65.39;100089.38;5002979;28;20025;-51
2021/07/13 02:51:03;;;;;;;4.05;3.75;;;;;;;22.07;65.21;100090.31;5014094;28;20073;-51
2021/07/13 02:53:29;;;;;;;3.90;3.60;;;;;;;22.07;65.49;100090.31;5015401;28;20045;-51
2021/07/13 02:55:55;;;;;;;4.05;3.70;;;;;;;22.06;65.32;100088.63;5012862;28;20026;-51
2021/07/13 02:58:21;;;;;;;3.95;3.65;;;;;;;22.07;65.34;100086.81;5017292;28;20030;-51
2021/07/13 03:00:46;;;;;;;4.00;3.63;;;;;;;22.06;65.13;100096.66;5020462;28;20029;-51
2021/07/13 03:03:12;;;;;;;4.05;3.70;;;;;;;22.04;65.26;100091.41;5019878;28;20375;-51
2021/07/13 03:05:37;;;;;;;3.70;3.42;;;;;;;22.04;65.19;100090.56;5015172;28;20136;-51
2021/07/13 03:08:03;;;;;;;4.05;3.75;;;;;;;22.03;65.20;100097.75;5025427;28;20104;-51
2021/07/13 03:10:30;;;;;;;3.78;3.47;;;;;;;22.03;65.30;100110.28;5015962;28;20179;-51
2021/07/13 03:12:55;;;;;;;3.90;3.60;;;;;;;22.02;65.12;100109.44;5019320;28;20120;-51
2021/07/13 03:15:27;;;;;;;4.25;3.95;;;;;;;22.01;65.15;100107.72;4998834;28;20566;-50
2021/07/13 03:17:56;;;;;;;3.92;3.63;;;;;;;22.00;65.32;100099.75;5014893;28;20029;-52
2021/07/13 03:20:23;;;;;;;3.75;3.45;;;;;;;22.01;65.24;100109.56;5020875;28;20075;-51
2021/07/13 03:22:49;;;;;;;4.22;3.83;;;;;;;22.00;65.20;100102.44;5016231;28;20033;-51
2021/07/13 03:25:44;;;;;;;3.75;3.42;;;;;;;21.99;65.18;100119.50;5015878;28;20029;-50
2021/07/13 03:28:11;;;;;;;4.35;4.05;;;;;;;21.98;65.19;100120.50;5003810;28;20585;-51
2021/07/13 03:30:37;;;;;;;4.03;3.70;;;;;;;21.97;65.14;100119.63;5023617;23;20054;-51
2021/07/13 03:33:02;;;;;;;4.57;3.80;;;;;;;21.98;65.24;100131.22;5000598;28;20029;-51
2021/07/13 03:35:30;;;;;;;4.10;3.50;;;;;;;21.97;65.27;100142.94;4996982;28;20034;-50
2021/07/13 03:37:55;;;;;;;3.80;3.50;;;;;;;21.96;65.28;100141.19;4998511;28;20022;-51
2021/07/13 03:40:23;;;;;;;3.92;3.65;;;;;;;21.95;65.26;100134.09;5001147;28;20079;-50
2021/07/13 03:45:17;;;;;;;3.72;3.42;;;;;;;21.93;65.32;100123.47;4999005;28;20043;-51
2021/07/13 03:47:51;;;;;;;4.60;4.30;;;;;;;21.91;65.31;100118.19;4995684;28;20031;-51
2021/07/13 03:50:17;;;;;;;4.10;3.80;;;;;;;21.91;65.24;100123.56;5001470;28;20045;-51
2021/07/13 03:52:43;;;;;;;3.92;3.63;;;;;;;21.91;65.31;100120.88;4993319;28;20125;-51
2021/07/13 03:55:10;;;;;;;4.40;4.00;;;;;;;21.90;65.37;100129.03;4990989;28;20491;-51
2021/07/13 03:57:35;;;;;;;4.55;4.13;;;;;;;21.90;65.41;100131.72;4996632;28;20088;-50
2021/07/13 04:00:08;;;;;;;3.72;3.42;;;;;;;21.88;65.17;100137.19;4988776;28;20045;-51
2021/07/13 04:02:33;;;;;;;4.07;3.78;;;;;;;21.87;65.38;100130.09;4990901;28;20472;-51
2021/07/13 04:04:58;;;;;;;4.35;4.05;;;;;;;21.86;65.36;100133.75;4993544;28;20022;-51
2021/07/13 04:07:26;;;;;;;4.10;3.80;;;;;;;21.86;65.26;100120.34;4990184;28;20034;-51
2021/07/13 04:09:52;;;;;;;4.05;3.75;;;;;;;21.86;65.36;100119.47;4993183;28;20495;-51
2021/07/13 04:12:17;;;;;;;4.43;4.07;;;;;;;21.85;65.22;100121.31;4989322;28;20034;-51
2021/07/13 04:14:42;;;;;;;3.83;3.53;;;;;;;21.85;65.39;100131.16;4995025;28;20030;-51
2021/07/13 04:17:08;;;;;;;4.68;4.00;;;;;;;21.84;65.47;100135.66;4993784;28;20018;-51
2021/07/13 04:19:36;;;;;;;4.28;3.90;;;;;;;21.83;65.35;100120.53;4990716;28;20062;-51
2021/07/13 04:22:02;;;;;;;4.63;4.25;;;;;;;21.83;65.38;100125.03;4993287;28;20487;-51
2021/07/13 04:24:27;;;;;;;4.38;4.07;;;;;;;21.83;65.51;100123.22;4993458;28;20022;-50
2021/07/13 04:26:52;;;;;;;4.07;3.67;;;;;;;21.81;65.41;100125.16;4990255;28;20105;-50
2021/07/13 04:29:18;;;;;;;4.57;4.18;;;;;;;21.80;65.47;100115.34;4989936;28;20017;-51
2021/07/13 04:31:43;;;;;;;4.93;4.03;;;;;;;21.81;65.45;100117.09;4990752;28;20034;-51
2021/07/13 04:34:11;;;;;;;5.10;4.70;;;;;;;21.79;65.54;100113.66;4994777;28;20021;-51
2021/07/13 04:36:37;;;;;;;5.07;4.60;;;;;;;21.79;65.57;100113.66;4993457;28;20022;-51
2021/07/13 04:39:05;;;;;;;4.57;4.18;;;;;;;21.79;65.43;100124.38;4989711;28;20033;-51
2021/07/13 04:41:30;;;;;;;4.05;3.78;;;;;;;21.77;65.50;100127.16;4992227;28;20115;-51
2021/07/13 04:43:56;;;;;;;4.53;4.10;;;;;;;21.78;65.56;100122.66;4993915;28;20074;-51
2021/07/13 04:46:22;;;;;;;4.88;4.28;;;;;;;21.75;65.49;100115.69;4992111;28;20044;-51
2021/07/13 04:48:47;;;;;;;4.55;4.15;;;;;;;21.76;65.70;100111.16;4990782;28;20114;-53
2021/07/13 04:51:12;;;;;;;4.10;3.80;;;;;;;21.75;65.63;100114.81;4992750;28;20033;-51
2021/07/13 04:53:38;;;;;;;5.00;4.60;;;;;;;21.74;65.64;100121.16;4997697;28;20096;-51
2021/07/13 04:56:03;;;;;;;4.57;4.18;;;;;;;21.75;65.59;100122.84;4990152;28;20029;-51
2021/07/13 04:58:28;;;;;;;4.75;4.35;;;;;;;21.74;65.63;100115.78;4987034;28;20026;-50
2021/07/13 05:00:57;;;;;;;5.05;4.55;;;;;;;21.74;65.73;100113.09;4995825;28;20030;-51
2021/07/13 05:03:28;;;;;;;4.43;4.13;;;;;;;21.73;65.74;100124.72;4994231;28;20030;-51
2021/07/13 05:05:54;;;;;;;4.95;4.55;;;;;;;21.72;65.81;100114.97;4990843;28;20032;-51
2021/07/13 05:08:22;;;;;;;5.00;4.70;;;;;;;21.71;65.63;100102.53;4997377;28;20030;-51
2021/07/13 05:10:47;;;;;;;5.28;4.78;;;;;;;21.72;65.62;100112.28;4991290;28;21567;-51
2021/07/13 05:13:13;;;;;;;4.55;4.22;;;;;;;21.71;65.78;100102.53;4993535;28;20026;-51
2021/07/13 05:15:44;;;;;;;4.70;4.18;;;;;;;21.71;65.77;100108.72;4995678;28;20026;-51
2021/07/13 05:18:10;;;;;;;4.97;4.57;;;;;;;21.70;65.73;100100.81;4991757;28;20337;-51
2021/07/13 05:20:36;;;;;;;4.75;4.35;;;;;;;21.71;65.77;100097.16;4995625;28;20054;-51
2021/07/13 05:23:06;;;;;;;4.90;4.50;;;;;;;21.70;65.85;100100.81;4992805;28;20136;-51
2021/07/13 05:25:32;;;;;;;5.25;4.78;;;;;;;21.69;65.90;100099.06;4992088;28;20080;-51
2021/07/13 05:28:05;;;;;;;4.82;4.40;;;;;;;21.70;65.83;100090.06;4988948;28;20015;-51
2021/07/13 05:30:31;;;;;;;5.18;4.68;;;;;;;21.69;65.92;100093.69;4995433;28;20045;-50
2021/07/13 05:33:14;;;;;;;5.20;4.70;;;;;;;21.68;65.83;100084.81;4992647;28;20026;-51
2021/07/13 05:35:40;;;;;;;4.57;4.28;;;;;;;21.69;65.90;100085.66;4995408;28;20497;-51
2021/07/13 05:38:09;;;;;;;5.03;4.63;;;;;;;21.68;65.84;100090.16;4996378;28;20465;-51
2021/07/13 05:40:35;;;;;;;4.60;4.25;;;;;;;21.69;65.86;100096.38;4993844;28;20030;-51
2021/07/13 05:43:00;;;;;;;4.95;4.55;;;;;;;21.66;66.07;100087.59;4992462;28;20929;-51
2021/07/13 05:45:26;;;;;;;5.25;4.85;;;;;;;21.67;65.94;100097.34;4995141;28;20046;-51
2021/07/13 05:47:51;;;;;;;5.78;5.28;;;;;;;21.68;66.07;100095.53;4995622;28;20026;-52
2021/07/13 05:50:17;;;;;;;4.75;4.35;;;;;;;21.68;66.00;100100.91;4991852;28;20018;-51
2021/07/13 05:52:45;;;;;;;4.88;4.40;;;;;;;21.67;65.81;100097.34;4993758;28;20602;-51
2021/07/13 05:55:11;;;;;;;5.57;5.18;;;;;;;21.67;66.09;100093.78;4993922;28;20056;-51
2021/07/13 05:57:36;;;;;;;4.97;4.53;;;;;;;21.66;65.97;100094.75;4993808;28;20481;-50
2021/07/13 06:00:11;;;;;;;5.40;5.00;;;;;;;21.66;66.10;100098.31;4992831;28;20022;-51
2021/07/13 06:02:37;;;;;;;5.63;5.13;;;;;;;21.67;66.06;100104.53;4991176;28;20018;-51
2021/07/13 06:05:03;;;;;;;5.18;4.78;;;;;;;21.67;65.96;100105.41;4991846;28;20036;-50
2021/07/13 06:07:28;;;;;;;6.03;5.38;;;;;;;21.67;66.17;100109.91;5000783;28;20017;-50
2021/07/13 06:09:56;;;;;;;5.57;5.07;;;;;;;21.66;66.04;100114.41;5000678;28;20084;-51
2021/07/13 06:12:21;;;;;;;6.10;5.60;;;;;;;21.67;66.15;100113.44;4994643;28;20038;-51
2021/07/13 06:14:49;;;;;;;5.38;4.97;;;;;;;21.65;66.14;100104.63;4994933;28;20022;-50
2021/07/13 06:17:15;;;;;;;5.75;5.25;;;;;;;21.65;66.03;100101.09;4994944;28;20162;-50
2021/07/13 06:19:40;;;;;;;5.97;5.47;;;;;;;21.66;66.14;100106.38;4992985;28;20045;-51
2021/07/13 06:22:06;;;;;;;6.03;5.40;;;;;;;21.66;66.21;100108.19;4994059;28;20030;-51
2021/07/13 06:24:31;;;;;;;6.80;5.95;;;;;;;21.66;66.13;100100.13;4993177;28;20038;-51
2021/07/13 06:26:56;;;;;;;5.55;5.15;;;;;;;21.66;66.08;100092.94;4991916;28;20030;-51
2021/07/13 06:29:22;;;;;;;6.15;5.65;;;;;;;21.66;66.14;100101.00;4992632;28;20022;-51
2021/07/13 06:31:51;;;;;;;6.45;5.85;;;;;;;21.66;66.17;100092.94;4998236;28;20046;-51
2021/07/13 06:34:25;;;;;;;5.38;4.93;;;;;;;21.66;66.24;100100.13;4994726;28;20022;-51
2021/07/13 06:36:51;;;;;;;5.75;5.25;;;;;;;21.65;66.30;100088.53;4991192;28;20038;-51
2021/07/13 06:39:19;;;;;;;5.30;4.80;;;;;;;21.65;66.17;100091.22;4992232;28;20069;-51
2021/07/13 06:41:44;;;;;;;5.80;5.30;;;;;;;21.65;66.20;100090.38;4991118;28;20376;-51
2021/07/13 06:44:10;;;;;;;6.38;5.32;;;;;;;21.65;66.02;100101.09;4995185;28;20076;-51
2021/07/13 06:46:36;;;;;;;6.30;5.80;;;;;;;21.66;66.27;100097.44;4991272;28;20495;-51
2021/07/13 06:49:02;;;;;;;5.28;4.88;;;;;;;21.64;66.28;100088.66;5000379;28;20022;-51
2021/07/13 06:51:37;;;;;;;5.75;5.18;;;;;;;21.65;66.25;100093.06;4992382;28;20037;-51
2021/07/13 06:54:02;;;;;;;6.88;6.18;;;;;;;21.65;66.13;100101.09;5000038;28;20033;-51
2021/07/13 06:56:28;;;;;;;6.28;5.65;;;;;;;21.65;66.37;100107.31;4992595;28;20488;-51
2021/07/13 06:58:54;;;;;;;6.00;5.53;;;;;;;21.64;66.29;100102.91;4996454;28;20030;-51
2021/07/13 07:01:19;;;;;;;5.32;4.82;;;;;;;21.64;66.35;100088.66;4993282;28;20030;-51
2021/07/13 07:03:44;;;;;;;6.93;6.22;;;;;;;21.64;66.30;100096.69;4994694;28;20113;-50
2021/07/13 07:06:10;;;;;;;5.70;5.30;;;;;;;21.64;66.36;100096.69;4992203;28;20026;-51
2021/07/13 07:08:35;;;;;;;6.63;6.00;;;;;;;21.65;66.36;100088.53;4992184;28;20101;-50
2021/07/13 07:11:00;;;;;;;5.40;5.00;;;;;;;21.64;66.39;100089.50;4992337;28;20034;-50
2021/07/13 07:13:26;;;;;;;5.75;5.25;;;;;;;21.63;66.44;100098.50;4992239;28;20018;-51
2021/07/13 07:15:51;;;;;;;5.97;5.50;;;;;;;21.65;66.46;100087.69;4995630;28;20165;-51
2021/07/13 07:18:20;;;;;;;5.80;5.13;;;;;;;21.65;66.44;100088.53;4997538;28;20160;-51
2021/07/13 07:20:45;;;;;;;5.70;5.20;;;;;;;21.66;66.42;100086.72;4993312;28;20030;-51
2021/07/13 07:23:10;;;;;;;5.53;5.13;;;;;;;21.65;66.57;100087.69;4994391;28;20030;-51
2021/07/13 07:25:36;;;;;;;5.90;5.35;;;;;;;21.63;66.54;100090.47;4997497;28;20022;-51
2021/07/13 07:28:02;;;;;;;5.97;5.38;;;;;;;21.65;66.62;100080.47;4994043;28;20070;-51
2021/07/13 07:30:36;;;;;;;6.03;5.53;;;;;;;21.66;66.42;100082.22;4994194;28;20104;-50
2021/07/13 07:33:05;;;;;;;6.07;5.57;;;;;;;21.65;66.66;100080.47;5000316;28;20511;-51
2021/07/13 07:35:33;;;;;;;6.38;5.88;;;;;;;21.66;66.71;100081.34;4993964;28;20396;-51
2021/07/13 07:37:59;;;;;;;6.72;6.22;;;;;;;21.65;66.79;100077.78;4995535;28;20018;-50
2021/07/13 07:40:24;;;;;;;6.43;5.82;;;;;;;21.65;66.97;100075.09;4996612;28;20045;-50
2021/07/13 07:42:52;;;;;;;6.25;5.75;;;;;;;21.67;66.64;100070.50;4992668;28;20034;-52
2021/07/13 07:45:19;;;;;;;6.80;6.28;;;;;;;21.65;66.75;100068.91;4998869;28;20065;-50
2021/07/13 07:47:45;;;;;;;6.30;5.80;;;;;;;21.68;66.83;100066.03;4994246;28;20022;-51
2021/07/13 07:50:12;;;;;;;6.53;6.03;;;;;;;21.66;66.73;100052.69;4993447;28;20028;-51
2021/07/13 07:52:40;;;;;;;6.00;5.55;;;;;;;21.67;66.81;100048.19;4993818;28;20144;-51
2021/07/13 07:55:07;;;;;;;6.20;5.60;;;;;;;21.67;66.72;100049.06;4993138;28;20454;-50
2021/07/13 07:57:32;;;;;;;6.40;5.90;;;;;;;21.65;66.74;100034.84;4996482;28;20110;-50
2021/07/13 07:59:58;;;;;;;6.63;6.03;;;;;;;21.66;66.78;100043.78;4994074;28;20022;-50
2021/07/13 08:02:23;;;;;;;6.15;5.65;;;;;;;21.65;67.03;100052.81;4999314;28;20026;-51
2021/07/13 08:04:49;;;;;;;6.43;5.93;;;;;;;21.66;66.89;100046.47;4993177;28;20396;-50
2021/07/13 08:07:14;;;;;;;6.70;6.15;;;;;;;21.67;66.87;100038.31;4999864;28;20460;-51
2021/07/13 08:09:39;;;;;;;5.57;5.18;;;;;;;21.69;66.80;100043.59;4997139;28;20415;-51
2021/07/13 08:12:05;;;;;;;6.43;5.82;;;;;;;21.69;66.71;100045.41;4997665;28;20033;-51
2021/07/13 08:14:31;;;;;;;6.53;6.03;;;;;;;21.69;66.71;100043.59;4996311;28;20029;-51
2021/07/13 08:16:56;;;;;;;6.85;6.15;;;;;;;21.69;66.63;100042.72;4998537;28;20053;-51
2021/07/13 08:19:22;;;;;;;6.78;6.20;;;;;;;21.67;66.77;100045.50;4992965;28;20038;-50
2021/07/13 08:21:47;;;;;;;6.72;6.22;;;;;;;21.67;66.76;100038.31;5007008;28;20024;-51
2021/07/13 08:24:13;;;;;;;7.00;6.35;;;;;;;21.69;66.59;100042.72;5007491;28;20388;-51
2021/07/13 08:26:38;;;;;;;7.00;6.40;;;;;;;21.69;66.69;100034.66;4993457;28;20028;-51
2021/07/13 08:29:04;;;;;;;7.15;6.45;;;;;;;21.68;66.62;100041.88;5000692;28;20513;-51
2021/07/13 08:31:29;;;;;;;7.38;6.68;;;;;;;21.69;66.76;100029.28;4993023;28;20101;-51
2021/07/13 08:33:55;;;;;;;7.03;6.53;;;;;;;21.69;66.58;100029.28;4991798;28;20057;-51
2021/07/13 08:36:20;;;;;;;6.82;6.22;;;;;;;21.67;66.71;100030.28;4992853;28;20022;-51
2021/07/13 08:38:46;;;;;;;6.68;6.07;;;;;;;21.68;66.72;100031.13;4990753;28;20026;-51
2021/07/13 08:41:12;;;;;;;7.03;6.43;;;;;;;21.66;66.64;100023.19;4993041;28;20104;-51
2021/07/13 08:43:47;;;;;;;6.70;6.10;;;;;;;21.65;66.56;100021.44;4993665;28;20049;-51
2021/07/13 08:46:12;;;;;;;6.90;6.40;;;;;;;21.69;66.50;100021.25;4994808;28;20137;-51
2021/07/13 08:48:41;;;;;;;7.25;6.60;;;;;;;21.70;66.32;100017.63;4992104;28;20034;-51
2021/07/13 08:51:06;;;;;;;6.90;6.40;;;;;;;21.70;66.48;100017.63;4987901;28;20033;-51
2021/07/13 08:53:35;;;;;;;7.55;6.88;;;;;;;21.71;66.39;100020.19;4992289;28;20034;-51
2021/07/13 08:56:00;;;;;;;7.40;6.75;;;;;;;21.71;66.56;100020.19;4992572;28;20023;-51
2021/07/13 08:58:26;;;;;;;7.57;6.97;;;;;;;21.71;66.45;100020.19;4995731;28;20056;-51
2021/07/13 09:00:52;;;;;;;6.78;6.28;;;;;;;21.73;66.51;100020.06;4988553;28;20043;-51
2021/07/13 09:03:20;;;;;;;7.90;7.30;;;;;;;21.73;66.30;100022.75;4992734;28;20447;-51
2021/07/13 09:05:48;;;;;;;7.07;6.57;;;;;;;21.73;66.38;100018.25;4992193;28;20072;-51
2021/07/13 09:08:24;;;;;;;6.80;6.30;;;;;;;21.74;66.23;100008.44;4991534;28;20027;-52
2021/07/13 09:11:02;;;;;;;7.75;7.15;;;;;;;21.74;66.32;100008.44;4997324;28;20030;-51
2021/07/13 09:13:30;;;;;;;7.03;6.43;;;;;;;21.73;66.39;100012.03;4992131;28;20764;-51
2021/07/13 09:15:59;;;;;;;7.90;7.30;;;;;;;21.74;66.19;100008.44;4993768;28;20105;-51
2021/07/13 09:18:37;;;;;;;8.35;7.65;;;;;;;21.76;66.17;100009.19;4993417;28;20029;-51
2021/07/13 09:21:27;;;;;;;8.23;7.57;;;;;;;21.74;66.38;100013.81;4993439;28;20033;-50
2021/07/13 09:24:04;;;;;;;12.75;6.78;;;;;;;21.76;66.38;100011.84;4993531;28;20081;-51
2021/07/13 09:26:45;;;;;;;8.10;7.47;;;;;;;21.75;66.19;100010.16;4993152;28;20034;-51
2021/07/13 09:29:37;;;;;;;8.55;7.45;;;;;;;21.76;66.31;100011.84;4987258;28;20022;-51
2021/07/13 09:32:28;;;;;;;7.80;7.10;;;;;;;21.76;66.30;100001.13;4985279;28;20061;-51
2021/07/13 09:34:55;;;;;;;7.43;6.88;;;;;;;21.74;66.28;100003.91;4992659;28;20072;-51
2021/07/13 09:37:26;;;;;;;8.25;7.45;;;;;;;21.72;66.42;99999.59;4996005;28;20030;-50
2021/07/13 09:40:04;;;;;;;9.00;8.20;;;;;;;21.76;66.15;99999.31;4983593;28;20058;-51
2021/07/13 09:42:30;;;;;;;7.93;7.32;;;;;;;21.77;66.11;100008.19;4991497;28;20037;-51
2021/07/13 09:45:20;;;;;;;8.02;7.43;;;;;;;21.79;66.17;100011.66;4991247;28;20080;-51
2021/07/13 09:47:48;;;;;;;8.03;7.37;;;;;;;21.79;65.93;100000.94;4991128;28;20034;-51
2021/07/13 09:50:30;;;;;;;7.25;6.65;;;;;;;21.79;66.25;99995.56;4995713;28;20265;-51
2021/07/13 09:53:00;;;;;;;8.15;7.43;;;;;;;21.76;66.17;99991.25;4997736;28;20379;-51
2021/07/13 09:55:26;;;;;;;8.48;7.78;;;;;;;21.77;66.30;99995.66;4991356;28;20121;-51
2021/07/13 09:57:51;;;;;;;8.73;8.02;;;;;;;21.78;66.22;99988.47;4996348;28;20033;-51
2021/07/13 10:00:17;;;;;;;7.82;7.22;;;;;;;21.77;66.05;99992.97;4992563;28;20026;-51
2021/07/13 10:02:45;;;;;;;8.25;7.53;;;;;;;21.77;66.30;99997.47;4996461;28;20390;-51
2021/07/13 10:05:10;;;;;;;8.18;7.57;;;;;;;21.77;66.24;99987.59;5000654;28;20765;-51
2021/07/13 10:07:40;;;;;;;8.10;7.30;;;;;;;21.79;66.18;99999.13;5000043;28;20072;-51
2021/07/13 10:10:08;;;;;;;8.57;7.85;;;;;;;21.79;66.18;99995.56;4992400;28;20484;-51
2021/07/13 10:12:34;;;;;;;8.43;7.63;;;;;;;21.80;66.25;99991.91;5003636;28;20044;-51
2021/07/13 10:15:00;;;;;;;7.68;7.07;;;;;;;21.81;66.14;99987.41;4998681;28;20022;-51
2021/07/13 10:17:28;;;;;;;8.20;7.57;;;;;;;21.81;66.19;99990.97;4990615;28;20550;-51
2021/07/13 10:19:59;;;;;;;8.40;7.70;;;;;;;21.82;66.15;99990.00;5007566;28;20038;-51
2021/07/13 10:22:26;;;;;;;7.50;6.90;;;;;;;21.82;66.21;99990.00;4990455;28;20101;-50
2021/07/13 10:24:55;;;;;;;7.38;6.80;;;;;;;21.83;66.22;99990.81;4989766;28;20089;-51
2021/07/13 10:27:42;;;;;;;7.15;6.55;;;;;;;21.83;66.23;99994.38;4990491;28;20469;-50
2021/07/13 10:30:27;;;;;;;7.82;7.13;;;;;;;21.84;66.31;99988.03;4987887;28;20038;-51
2021/07/13 10:32:53;;;;;;;7.25;6.63;;;;;;;21.84;66.07;99982.69;4977635;28;20045;-50
2021/07/13 10:35:28;;;;;;;7.32;6.72;;;;;;;21.85;66.25;99989.78;4975654;28;20026;-51
2021/07/13 10:38:21;;;;;;;7.68;7.07;;;;;;;21.85;66.49;99980.88;4986794;28;20093;-51
2021/07/13 10:40:47;;;;;;;7.30;6.70;;;;;;;21.86;66.36;99991.50;4989777;28;20031;-51
2021/07/13 10:43:16;;;;;;;6.97;6.47;;;;;;;21.87;66.20;99990.53;4992347;28;20084;-51
2021/07/13 10:45:43;;;;;;;7.38;6.85;;;;;;;21.88;66.32;99986.03;5019064;22;20078;-51
2021/07/13 10:48:20;;;;;;;7.13;6.53;;;;;;;21.88;66.44;99994.09;4982211;28;20494;-51
2021/07/13 10:51:06;;;;;;;8.02;7.35;;;;;;;21.88;66.25;99994.91;5008776;28;21575;-51
2021/07/13 10:53:42;;;;;;;7.43;6.82;;;;;;;21.88;66.24;99989.56;4999136;28;20041;-51
2021/07/13 10:56:10;;;;;;;7.47;6.40;;;;;;;21.87;66.80;99987.84;4987063;28;20040;-51
2021/07/13 10:58:37;;;;;;;6.97;6.38;;;;;;;21.88;66.79;99984.19;4990103;28;20110;-51
2021/07/13 11:01:26;;;;;;;7.10;6.50;;;;;;;21.90;66.39;99987.63;4993246;28;20044;-52
2021/07/13 11:04:08;;;;;;;7.35;6.75;;;;;;;21.91;66.47;99983.97;4988795;28;20065;-51
2021/07/13 11:06:53;;;;;;;7.18;6.57;;;;;;;21.94;66.32;99987.44;4992823;28;20441;-52
2021/07/13 11:09:28;;;;;;;7.40;6.80;;;;;;;21.97;66.46;99992.59;4995187;28;20022;-51
2021/07/13 11:12:03;;;;;;;5.80;5.40;;;;;;;21.96;66.90;99993.53;4994727;28;20028;-51
2021/07/13 11:14:49;;;;;;;6.85;6.28;;;;;;;21.94;66.52;99995.50;4999905;28;20037;-51
2021/07/13 11:17:19;;;;;;;6.18;5.78;;;;;;;21.97;66.45;99992.59;4986324;28;20022;-51
2021/07/13 11:19:44;;;;;;;6.55;6.00;;;;;;;21.97;66.48;99992.59;4993405;28;20057;-51
2021/07/13 11:22:15;;;;;;;6.60;6.10;;;;;;;21.97;66.42;99993.44;4992192;28;20480;-51
2021/07/13 11:24:43;;;;;;;7.03;6.53;;;;;;;21.99;66.34;99999.59;4989868;28;20053;-51
2021/07/13 11:27:09;;;;;;;7.13;6.53;;;;;;;21.97;66.56;99996.13;4984918;28;20073;-51
2021/07/13 11:29:34;;;;;;;7.35;6.75;;;;;;;21.99;66.43;99996.91;4990899;28;20030;-51
2021/07/13 11:32:02;;;;;;;6.50;6.00;;;;;;;22.00;66.33;99995.91;4994347;28;20026;-52
2021/07/13 11:34:40;;;;;;;6.75;6.15;;;;;;;22.02;66.40;99990.44;4992979;28;20040;-52
2021/07/13 11:37:06;;;;;;;6.10;5.60;;;;;;;22.03;66.33;99994.84;4986226;28;20393;-51
2021/07/13 11:39:34;;;;;;;5.47;5.07;;;;;;;22.03;66.36;99986.78;4998494;28;20029;-51
2021/07/13 11:42:06;;;;;;;7.20;6.50;;;;;;;22.02;66.56;99985.09;4987127;28;20030;-51
2021/07/13 11:44:32;;;;;;;6.18;5.78;;;;;;;22.03;66.41;99989.47;4992658;28;20045;-51